Terminal Aerodrome Forecast
Issued by NWS

Home | Current Version | Previous Version | Graphics & Text | Print | Product List | Glossary On
Versions: 1 2 3 4 5 6 7 8 9 10 11 12 13 14 15 16
029
FTUS43 KICT 181130
TAFSLN
TAF
KSLN 181130Z 1812/1912 17009KT P6SM SCT250
     FM181400 16004KT P6SM SCT150
     FM181700 15005KT P6SM SCT250
     FM190700 17007KT P6SM BKN090
     FM190900 17006KT 3SM BR BKN003=

USA.gov is the U.S. government's official web portal to all federal, state and local government web resources and services.